GOOY/DKR METAR and TAF weather

Enter ICAO airport designator
Station Type Date Time Source
GOOY METAR 2019/02/20 23:00 UTC NOAA

GOOY 202300Z 36006KT 7000 DU NSC 20/16 Q1014


Station Type Date Time Source
GOOY Decoded METAR 2019/02/20 23:00 UTC NOAA

Dakar / Yoff, Senegal (GOOY) 14-44N 017-30W 24M
Feb 20, 2019 - 06:00 PM EST / 2019.02.20 2300 UTC
Wind: from the N (360 degrees) at 7 MPH (6 KT):0
Visibility: 4 mile(s):0
Weather: widespread dust
Temperature: 68 F (20 C)
Dew Point: 60 F (16 C)
Relative Humidity: 77%
Pressure (altimeter): 29.94 in. Hg (1014 hPa)
ob: GOOY 202300Z 36006KT 7000 DU NSC 20/16 Q1014
cycle: 23

Station Type Date Time Source
GOOY TAF 2019/02/20 18:52 UTC NOAA

TAF GOOY 201730Z 2018/2124 01010KT 8000 NSC


Example: see airport list